Time;durP1;ratioP1;P1;durP2;ratioP2;P2;SDS_P1;SDS_P2;PMS_P1;PMS_P2;Temp;Humidity;BMP_temperature;BMP_pressure;BME280_temperature;BME280_humidity;BME280_pressure;Samples;Min_cycle;Max_cycle;Signal;HPM_P1;HPM_P2
2022/08/13 00:01:58;;;;;;;1.77;1.00;;;;;;;14.77;100.00;100906.69;5027795;28;20033;-50
2022/08/13 00:04:26;;;;;;;1.58;1.13;;;;;;;14.78;100.00;100900.31;5028673;28;20115;-47
2022/08/13 00:07:10;;;;;;;7.20;1.63;;;;;;;14.74;100.00;100900.94;5027847;28;20214;-49
2022/08/13 00:09:39;;;;;;;3.28;1.60;;;;;;;14.69;100.00;100893.56;5028636;28;20060;-51
2022/08/13 00:14:53;;;;;;;4.68;1.08;;;;;;;14.60;100.00;100900.13;5025575;28;20033;-49
2022/08/13 00:17:19;;;;;;;1.45;0.80;;;;;;;14.53;100.00;100896.66;5019162;28;20022;-53
2022/08/13 00:19:49;;;;;;;2.55;1.00;;;;;;;14.49;100.00;100893.56;5026471;28;20432;-53
2022/08/13 00:22:18;;;;;;;0.80;0.80;;;;;;;14.47;100.00;100892.13;5026762;28;20377;-49
2022/08/13 00:24:45;;;;;;;2.15;1.00;;;;;;;14.43;100.00;100894.38;5029777;28;20065;-50
2022/08/13 00:27:10;;;;;;;2.88;1.33;;;;;;;14.42;100.00;100895.41;5025756;28;20075;-49
2022/08/13 00:29:37;;;;;;;3.67;1.33;;;;;;;14.41;100.00;100880.44;5027430;28;20481;-53
2022/08/13 00:32:03;;;;;;;2.67;0.90;;;;;;;14.41;100.00;100888.44;5027969;28;20489;-52
2022/08/13 00:34:28;;;;;;;4.07;1.30;;;;;;;14.38;100.00;100883.50;5023613;28;20041;-51
2022/08/13 00:36:54;;;;;;;2.70;1.17;;;;;;;14.32;100.00;100885.13;5027826;28;20037;-51
2022/08/13 00:39:19;;;;;;;1.98;0.90;;;;;;;14.31;100.00;100882.69;5023855;28;20524;-50
2022/08/13 00:41:46;;;;;;;7.22;1.38;;;;;;;14.25;100.00;100887.00;5028453;28;20036;-50
2022/08/13 00:44:14;;;;;;;2.20;0.95;;;;;;;14.19;100.00;100885.94;5023811;28;20037;-49
2022/08/13 00:46:41;;;;;;;1.88;0.70;;;;;;;14.16;100.00;100883.69;5015564;28;20026;-49
2022/08/13 00:49:08;;;;;;;4.30;1.38;;;;;;;14.14;100.00;100883.06;5025009;28;20076;-51
2022/08/13 00:51:35;;;;;;;5.05;1.48;;;;;;;14.13;100.00;100888.63;5022028;28;20071;-52
2022/08/13 00:54:02;;;;;;;1.27;0.90;;;;;;;14.06;100.00;100891.28;5021667;28;20553;-51
2022/08/13 00:56:33;;;;;;;0.93;0.88;;;;;;;14.05;100.00;100892.31;5017032;28;20136;-47
2022/08/13 00:59:07;;;;;;;2.60;1.42;;;;;;;14.03;100.00;100889.03;5024526;28;20056;-51
2022/08/13 01:01:35;;;;;;;2.78;1.75;;;;;;;14.04;100.00;100896.00;5026853;28;20075;-49
2022/08/13 01:04:03;;;;;;;2.67;1.35;;;;;;;14.02;100.00;100894.56;5027852;28;20033;-49
2022/08/13 01:06:29;;;;;;;1.40;0.98;;;;;;;14.01;100.00;100896.41;5018205;28;20114;-52
2022/08/13 01:08:54;;;;;;;1.60;1.05;;;;;;;13.99;100.00;100895.78;5022979;28;20105;-49
2022/08/13 01:11:23;;;;;;;20.02;2.20;;;;;;;13.91;100.00;100891.50;5025996;28;20038;-50
2022/08/13 01:13:50;;;;;;;5.35;1.38;;;;;;;13.85;100.00;100888.81;5016592;28;20387;-51
2022/08/13 01:16:16;;;;;;;0.98;0.80;;;;;;;13.86;100.00;100887.78;5028467;28;20068;-50
2022/08/13 01:18:50;;;;;;;2.92;0.80;;;;;;;13.78;100.00;100887.97;5021014;28;20178;-54
2022/08/13 01:21:18;;;;;;;1.40;0.75;;;;;;;13.72;100.00;100887.75;5019787;28;20030;-49
2022/08/13 01:23:48;;;;;;;3.88;1.35;;;;;;;13.70;100.00;100880.97;5020294;28;20037;-51
2022/08/13 01:26:16;;;;;;;1.77;0.85;;;;;;;13.65;100.00;100884.25;5018227;28;20041;-49
2022/08/13 01:28:42;;;;;;;2.20;1.30;;;;;;;13.62;100.00;100881.16;5026137;28;20064;-49
2022/08/13 01:31:08;;;;;;;4.30;0.73;;;;;;;13.58;100.00;100877.25;5012337;28;20033;-49
2022/08/13 01:33:38;;;;;;;3.05;1.35;;;;;;;13.53;100.00;100875.22;5023512;28;20067;-48
2022/08/13 01:36:05;;;;;;;4.97;1.10;;;;;;;13.49;100.00;100880.09;5013374;28;20050;-48
2022/08/13 01:38:33;;;;;;;2.72;0.93;;;;;;;13.48;100.00;100867.81;5020538;28;20034;-49
2022/08/13 01:40:58;;;;;;;2.40;0.60;;;;;;;13.47;100.00;100870.66;5025278;28;20049;-47
2022/08/13 01:43:28;;;;;;;1.73;0.68;;;;;;;13.47;100.00;100870.66;5022063;28;20065;-52
2022/08/13 01:45:54;;;;;;;6.50;1.38;;;;;;;13.45;100.00;100867.38;5018706;28;20029;-54
2022/08/13 01:51:13;;;;;;;2.83;0.90;;;;;;;13.38;100.00;100866.56;5021259;28;20127;-51
2022/08/13 01:53:40;;;;;;;2.45;0.75;;;;;;;13.36;100.00;100863.28;5010541;28;20249;-49
2022/08/13 01:56:07;;;;;;;1.55;1.23;;;;;;;13.30;100.00;100873.69;5025797;28;20029;-51
2022/08/13 01:58:34;;;;;;;3.78;0.88;;;;;;;13.28;100.00;100870.41;5025877;28;20079;-50
2022/08/13 02:01:01;;;;;;;1.95;1.42;;;;;;;13.26;100.00;100864.44;5021384;28;20030;-49
2022/08/13 02:03:27;;;;;;;1.05;0.63;;;;;;;13.25;100.00;100861.97;5026941;28;20032;-49
2022/08/13 02:05:55;;;;;;;1.90;0.80;;;;;;;13.27;100.00;100868.78;5020124;28;20030;-50
2022/08/13 02:08:26;;;;;;;0.82;0.80;;;;;;;13.27;100.00;100863.44;5018010;28;20030;-50
2022/08/13 02:10:54;;;;;;;4.50;0.90;;;;;;;13.25;100.00;100867.31;5025755;28;20033;-51
2022/08/13 02:13:29;;;;;;;1.02;1.00;;;;;;;13.23;100.00;100870.16;5027533;28;20124;-53
2022/08/13 02:15:55;;;;;;;0.88;0.88;;;;;;;13.20;100.00;100864.41;5019602;28;20038;-50
2022/08/13 02:18:24;;;;;;;7.00;1.13;;;;;;;13.21;100.00;100861.53;5026519;28;20128;-48
2022/08/13 02:20:58;;;;;;;0.80;0.80;;;;;;;13.21;100.00;100866.03;5029421;28;20030;-50
2022/08/13 02:23:27;;;;;;;2.35;0.68;;;;;;;13.21;100.00;100861.53;5011894;28;20045;-49
2022/08/13 02:25:53;;;;;;;2.83;1.17;;;;;;;13.20;100.00;100867.06;5013427;28;20034;-51
2022/08/13 02:28:20;;;;;;;0.85;0.70;;;;;;;13.15;100.00;100873.00;5020858;28;20022;-48
2022/08/13 02:30:51;;;;;;;2.13;0.77;;;;;;;13.07;100.00;100860.66;5026142;28;20466;-49
2022/08/13 02:33:17;;;;;;;8.75;1.33;;;;;;;13.00;100.00;100864.31;5026496;28;20038;-48
2022/08/13 02:35:44;;;;;;;6.03;1.77;;;;;;;12.96;100.00;100871.03;5019181;28;20112;-50
2022/08/13 02:38:12;;;;;;;1.75;0.80;;;;;;;12.92;100.00;100869.81;5022951;28;20025;-48
2022/08/13 02:43:25;;;;;;;1.75;0.70;;;;;;;12.83;100.00;100863.81;5023607;28;20117;-50
2022/08/13 02:45:53;;;;;;;1.20;0.85;;;;;;;12.81;100.00;100863.19;5021325;28;20018;-47
2022/08/13 02:48:19;;;;;;;1.50;1.17;;;;;;;12.78;100.00;100867.06;5018866;28;20034;-49
2022/08/13 02:50:45;;;;;;;1.98;1.42;;;;;;;12.77;100.00;100864.59;5024346;28;20549;-50
2022/08/13 02:53:15;;;;;;;2.10;0.75;;;;;;;12.75;100.00;100861.31;5017347;28;20487;-50
2022/08/13 02:55:44;;;;;;;1.27;0.90;;;;;;;12.74;100.00;100865.81;5017818;28;20029;-50
2022/08/13 02:58:09;;;;;;;0.93;0.93;;;;;;;12.70;100.00;100869.91;5017118;28;20419;-47
2022/08/13 03:00:35;;;;;;;2.67;1.02;;;;;;;12.71;100.00;100879.50;5008402;28;20040;-50
2022/08/13 03:03:02;;;;;;;1.30;0.70;;;;;;;12.68;100.00;100866.59;5027070;28;20025;-48
2022/08/13 03:05:30;;;;;;;2.83;0.57;;;;;;;12.65;100.00;100869.66;5029799;28;20114;-47
2022/08/13 03:08:17;;;;;;;1.38;0.93;;;;;;;12.61;100.00;100866.56;5021771;28;20494;-50
2022/08/13 03:10:42;;;;;;;1.15;0.88;;;;;;;12.58;100.00;100866.94;5022596;28;20033;-52
2022/08/13 03:13:18;;;;;;;5.03;1.38;;;;;;;12.55;100.00;100867.34;5021011;28;20420;-48
2022/08/13 03:15:45;;;;;;;1.40;1.10;;;;;;;12.52;100.00;100861.56;5017137;28;20116;-48
2022/08/13 03:18:11;;;;;;;1.08;0.73;;;;;;;12.50;100.00;100868.94;5022248;28;20033;-52
2022/08/13 03:20:37;;;;;;;2.28;1.42;;;;;;;12.47;100.00;100858.66;5022232;28;20033;-51
2022/08/13 03:23:03;;;;;;;2.97;0.77;;;;;;;12.44;100.00;100860.72;5021548;28;20317;-48
2022/08/13 03:25:31;;;;;;;1.45;0.93;;;;;;;12.46;100.00;100862.34;5014858;28;20037;-47
2022/08/13 03:28:00;;;;;;;5.63;1.27;;;;;;;12.46;100.00;100852.53;5015580;28;20022;-50
2022/08/13 03:30:26;;;;;;;1.75;0.82;;;;;;;12.43;100.00;100856.41;5024660;28;20037;-52
2022/08/13 03:32:52;;;;;;;6.32;1.80;;;;;;;12.42;100.00;100859.28;5023974;28;20220;-50
2022/08/13 03:35:21;;;;;;;4.28;1.00;;;;;;;12.41;100.00;100854.97;5011188;28;20092;-49
2022/08/13 03:37:53;;;;;;;2.97;1.23;;;;;;;12.41;100.00;100854.97;5017241;28;20068;-51
2022/08/13 03:40:24;;;;;;;1.63;1.45;;;;;;;12.37;100.00;100854.53;5016172;28;20124;-49
2022/08/13 03:42:51;;;;;;;1.75;0.98;;;;;;;12.35;100.00;100861.88;5013491;28;20137;-49
2022/08/13 03:45:19;;;;;;;2.40;1.05;;;;;;;12.32;100.00;100856.13;5018177;28;20078;-47
2022/08/13 03:47:45;;;;;;;1.45;1.35;;;;;;;12.29;100.00;100861.81;5019993;28;20109;-50
2022/08/13 03:50:13;;;;;;;3.13;1.80;;;;;;;12.26;100.00;100863.03;5025554;28;20026;-50
2022/08/13 03:52:38;;;;;;;3.30;1.10;;;;;;;12.27;100.00;100862.03;5024280;28;20450;-50
2022/08/13 03:55:12;;;;;;;2.67;1.00;;;;;;;12.30;100.00;100863.47;5016878;28;20040;-49
2022/08/13 03:57:44;;;;;;;1.58;0.88;;;;;;;12.28;100.00;100866.31;5024618;28;20061;-51
2022/08/13 04:00:12;;;;;;;2.30;0.88;;;;;;;12.26;100.00;100863.03;5022490;28;20040;-50
2022/08/13 04:02:40;;;;;;;1.23;1.13;;;;;;;12.22;100.00;100865.25;5020375;28;20026;-52
2022/08/13 04:05:09;;;;;;;3.30;1.27;;;;;;;12.18;100.00;100866.66;5013979;28;20046;-47
2022/08/13 04:07:34;;;;;;;1.33;1.08;;;;;;;12.14;100.00;100868.06;5015176;28;20111;-50
2022/08/13 04:09:59;;;;;;;1.35;1.02;;;;;;;12.12;100.00;100874.56;5020924;28;20061;-48
2022/08/13 04:12:25;;;;;;;1.08;0.73;;;;;;;12.11;100.00;100865.78;5015659;28;20092;-53
2022/08/13 04:14:51;;;;;;;1.45;1.23;;;;;;;12.12;100.00;100866.59;5021937;28;20056;-50
2022/08/13 04:17:16;;;;;;;3.45;0.95;;;;;;;12.12;100.00;100855.97;5022552;28;20036;-51
2022/08/13 04:19:42;;;;;;;1.25;1.17;;;;;;;12.09;100.00;100851.03;5021137;28;20036;-48
2022/08/13 04:22:13;;;;;;;5.22;1.98;;;;;;;12.11;100.00;100857.81;5024645;28;20441;-48
2022/08/13 04:24:39;;;;;;;3.35;1.35;;;;;;;12.12;100.00;100850.66;5024187;28;20450;-50
2022/08/13 04:27:04;;;;;;;3.40;1.65;;;;;;;12.10;100.00;100861.47;5021180;28;20060;-47
2022/08/13 04:29:30;;;;;;;2.97;1.30;;;;;;;12.12;100.00;100855.97;5020617;28;20034;-48
2022/08/13 04:31:56;;;;;;;0.90;0.90;;;;;;;12.15;100.00;100860.91;5020010;28;20022;-49
2022/08/13 04:34:25;;;;;;;1.10;1.00;;;;;;;12.12;100.00;100853.31;5019264;28;20029;-50
2022/08/13 04:36:50;;;;;;;2.75;1.48;;;;;;;12.09;100.00;100853.69;5021136;28;20073;-50
2022/08/13 04:39:16;;;;;;;2.78;1.17;;;;;;;12.06;100.00;100851.44;5024622;28;20466;-52
2022/08/13 04:41:41;;;;;;;1.85;1.33;;;;;;;12.01;100.00;100859.97;5026421;28;20110;-48
2022/08/13 04:44:07;;;;;;;2.40;0.90;;;;;;;11.97;100.00;100862.16;5022552;28;20134;-49
2022/08/13 04:46:32;;;;;;;2.13;0.95;;;;;;;11.96;100.00;100860.53;5023154;28;20038;-48
2022/08/13 04:48:58;;;;;;;1.70;1.00;;;;;;;11.95;100.00;100858.06;5027362;28;20117;-47
2022/08/13 04:51:25;;;;;;;1.48;1.20;;;;;;;11.91;100.00;100862.13;5024404;28;20104;-47
2022/08/13 04:53:51;;;;;;;6.75;2.33;;;;;;;11.91;100.00;100862.94;5024020;28;20036;-48
2022/08/13 04:56:17;;;;;;;12.00;1.50;;;;;;;11.92;100.00;100863.75;5026603;28;20026;-49
2022/08/13 04:58:42;;;;;;;3.35;1.58;;;;;;;11.92;100.00;100866.41;5024086;28;20516;-47
2022/08/13 05:01:10;;;;;;;0.93;0.88;;;;;;;11.88;100.00;100865.16;5024367;28;20398;-52
2022/08/13 05:03:39;;;;;;;1.52;1.42;;;;;;;11.87;100.00;100874.13;5020662;28;20483;-48
2022/08/13 05:06:06;;;;;;;2.70;1.63;;;;;;;11.87;100.00;100872.28;5017343;28;20030;-49
2022/08/13 05:08:33;;;;;;;3.15;1.17;;;;;;;11.87;100.00;100874.94;5021197;28;20489;-47
2022/08/13 05:10:59;;;;;;;3.05;1.85;;;;;;;11.87;100.00;100872.28;5023149;28;20045;-48
2022/08/13 05:13:34;;;;;;;2.10;1.23;;;;;;;11.88;100.00;100870.47;5029436;28;20038;-50
2022/08/13 05:16:01;;;;;;;12.57;2.10;;;;;;;11.91;100.00;100873.56;5014268;28;20029;-47
2022/08/13 05:18:31;;;;;;;3.42;1.13;;;;;;;11.92;100.00;100871.72;5017887;28;20040;-51
2022/08/13 05:21:03;;;;;;;4.78;1.08;;;;;;;11.94;100.00;100870.53;5020937;28;20060;-49
2022/08/13 05:23:30;;;;;;;1.10;0.80;;;;;;;11.97;100.00;100867.47;5023608;28;20044;-50
2022/08/13 05:25:58;;;;;;;3.55;1.33;;;;;;;11.98;100.00;100871.81;5024280;28;20032;-50
2022/08/13 05:28:24;;;;;;;0.90;0.90;;;;;;;12.01;100.00;100873.25;5017165;28;20537;-50
2022/08/13 05:30:49;;;;;;;4.63;1.25;;;;;;;12.06;100.00;100870.03;5016564;28;20029;-48
2022/08/13 05:33:17;;;;;;;1.40;1.30;;;;;;;12.11;100.00;100873.75;5028702;28;20033;-49
2022/08/13 05:35:49;;;;;;;1.30;1.10;;;;;;;12.11;100.00;100871.09;5023503;28;20112;-51
2022/08/13 05:38:16;;;;;;;3.30;1.40;;;;;;;12.14;100.00;100861.91;5021646;28;20084;-49
2022/08/13 05:40:42;;;;;;;1.45;1.35;;;;;;;12.18;100.00;100860.50;5016690;28;20379;-53
2022/08/13 05:43:13;;;;;;;3.53;1.55;;;;;;;12.20;100.00;100864.63;5024516;28;20079;-49
2022/08/13 05:45:41;;;;;;;3.10;1.13;;;;;;;12.28;100.00;100861.00;5014943;28;20458;-50
2022/08/13 05:48:07;;;;;;;2.72;1.38;;;;;;;12.37;100.00;100865.16;5014468;28;20030;-51
2022/08/13 05:50:33;;;;;;;3.70;1.27;;;;;;;12.49;100.00;100859.31;5023367;28;20159;-51
2022/08/13 05:53:10;;;;;;;2.58;1.42;;;;;;;12.60;100.00;100861.44;5022547;28;20030;-48
2022/08/13 05:55:37;;;;;;;1.58;1.45;;;;;;;12.65;100.00;100857.19;5026709;28;20394;-49
2022/08/13 05:58:07;;;;;;;2.85;1.00;;;;;;;12.73;100.00;100858.88;5018586;28;20313;-50
2022/08/13 06:03:31;;;;;;;4.78;1.20;;;;;;;12.88;100.00;100864.03;5026738;28;20044;-48
2022/08/13 06:06:22;;;;;;;1.35;1.30;;;;;;;12.97;100.00;100862.06;5016241;28;20120;-48
2022/08/13 06:08:48;;;;;;;3.53;1.20;;;;;;;13.03;100.00;100858.59;5023291;28;20049;-46
2022/08/13 06:11:17;;;;;;;3.47;1.20;;;;;;;13.17;100.00;100862.97;5025236;28;20375;-50
2022/08/13 06:13:45;;;;;;;2.67;1.52;;;;;;;13.35;100.00;100856.31;5025249;28;20486;-48
2022/08/13 06:16:13;;;;;;;1.38;1.00;;;;;;;13.55;100.00;100851.84;5017929;28;20037;-53
2022/08/13 06:18:46;;;;;;;6.50;1.88;;;;;;;13.64;100.00;100847.16;5025489;28;22128;-50
2022/08/13 06:21:14;;;;;;;2.72;1.35;;;;;;;13.70;100.00;100846.34;5029407;28;20033;-48
2022/08/13 06:23:42;;;;;;;3.50;1.30;;;;;;;13.82;100.00;100851.91;5024168;28;20025;-50
2022/08/13 06:26:11;;;;;;;1.17;1.08;;;;;;;13.91;100.00;100850.66;5024069;28;20021;-49
2022/08/13 06:28:39;;;;;;;2.33;1.10;;;;;;;14.02;100.00;100850.06;5020127;28;20088;-49
2022/08/13 06:31:08;;;;;;;1.83;1.73;;;;;;;14.12;100.00;100846.97;5025925;28;20036;-50
2022/08/13 06:33:36;;;;;;;4.30;1.58;;;;;;;14.31;100.00;100846.16;5018656;28;20038;-47
2022/08/13 06:36:05;;;;;;;5.45;1.77;;;;;;;14.50;100.00;100844.47;5024033;28;20117;-48
2022/08/13 06:38:32;;;;;;;2.80;1.35;;;;;;;14.65;100.00;100843.47;5016013;28;20071;-48
2022/08/13 06:40:59;;;;;;;1.50;1.40;;;;;;;14.86;100.00;100835.19;5020598;28;20470;-50
2022/08/13 06:43:27;;;;;;;1.92;1.75;;;;;;;15.01;100.00;100835.75;5024689;28;20457;-49
2022/08/13 06:45:55;;;;;;;3.42;2.08;;;;;;;15.20;100.00;100831.34;5026198;28;20450;-49
2022/08/13 06:48:21;;;;;;;6.53;2.25;;;;;;;15.40;100.00;100833.94;5025708;28;20426;-53
2022/08/13 06:50:46;;;;;;;2.55;1.20;;;;;;;15.67;100.00;100823.09;5025825;28;20049;-50
2022/08/13 06:53:12;;;;;;;2.28;1.83;;;;;;;15.97;100.00;100820.63;5024442;28;20103;-53
2022/08/13 06:55:40;;;;;;;8.25;1.90;;;;;;;16.20;100.00;100817.34;5022400;28;20030;-50
2022/08/13 06:58:10;;;;;;;4.13;1.50;;;;;;;16.48;100.00;100824.06;5026453;28;20057;-54
2022/08/13 07:00:38;;;;;;;3.83;1.38;;;;;;;16.72;100.00;100815.16;5021467;28;20022;-54
2022/08/13 07:03:04;;;;;;;2.72;1.67;;;;;;;16.91;100.00;100818.69;5021046;28;20035;-52
2022/08/13 07:05:38;;;;;;;10.75;2.83;;;;;;;17.25;100.00;100824.44;5022801;28;20136;-49
2022/08/13 07:08:07;;;;;;;3.28;2.00;;;;;;;17.50;100.00;100812.75;5026495;28;20056;-50
2022/08/13 07:10:40;;;;;;;6.15;1.75;;;;;;;17.66;100.00;100810.25;5023430;28;20487;-51
2022/08/13 07:13:06;;;;;;;3.63;1.80;;;;;;;17.94;100.00;100816.84;5027070;28;20046;-53
2022/08/13 07:15:31;;;;;;;4.43;2.28;;;;;;;18.30;100.00;100817.66;5016438;28;20501;-53
2022/08/13 07:17:58;;;;;;;2.72;2.08;;;;;;;18.41;100.00;100808.00;5016746;28;20039;-53
2022/08/13 07:20:24;;;;;;;8.02;2.17;;;;;;;18.60;100.00;100805.97;5022329;28;20059;-53
2022/08/13 07:22:52;;;;;;;2.05;1.83;;;;;;;18.85;100.00;100811.91;5027213;28;20061;-52
2022/08/13 07:25:19;;;;;;;6.57;1.98;;;;;;;18.94;100.00;100799.72;5013342;28;20235;-52
2022/08/13 07:27:45;;;;;;;3.03;1.67;;;;;;;19.08;100.00;100804.84;5017483;28;20026;-51
2022/08/13 07:30:15;;;;;;;3.22;1.98;;;;;;;19.21;100.00;100799.19;5024483;28;20482;-51
2022/08/13 07:32:41;;;;;;;5.15;2.33;;;;;;;19.35;100.00;100792.44;5023531;28;20030;-50
2022/08/13 07:35:08;;;;;;;3.42;1.90;;;;;;;19.55;100.00;100797.34;5026230;28;20041;-50
2022/08/13 07:37:35;;;;;;;4.20;1.30;;;;;;;19.71;100.00;100787.69;5023751;28;20139;-47
2022/08/13 07:40:02;;;;;;;3.33;1.48;;;;;;;19.82;100.00;100794.88;5025141;28;20426;-53
2022/08/13 07:42:30;;;;;;;4.68;2.13;;;;;;;19.95;100.00;100782.16;5024917;28;20458;-49
2022/08/13 07:44:55;;;;;;;5.70;1.60;;;;;;;20.17;100.00;100782.22;5022766;28;20034;-50
2022/08/13 07:47:21;;;;;;;4.95;1.80;;;;;;;20.38;100.00;100786.81;5017146;28;20036;-49
2022/08/13 07:49:48;;;;;;;8.95;1.30;;;;;;;20.56;100.00;100783.03;5026578;28;20113;-49
2022/08/13 07:52:14;;;;;;;3.70;1.63;;;;;;;20.64;100.00;100781.78;5026645;28;20723;-52
2022/08/13 07:54:42;;;;;;;2.47;1.83;;;;;;;20.76;100.00;100771.72;5017905;28;20127;-50
2022/08/13 07:57:10;;;;;;;2.50;2.03;;;;;;;20.89;100.00;100765.94;5023226;28;20042;-52
2022/08/13 07:59:36;;;;;;;1.85;1.48;;;;;;;21.11;100.00;100762.38;5022399;28;20022;-51
2022/08/13 08:02:04;;;;;;;2.88;1.48;;;;;;;21.25;100.00;100757.41;5024111;28;20025;-49
2022/08/13 08:04:31;;;;;;;5.57;1.60;;;;;;;21.38;100.00;100759.72;5020352;28;20041;-50
2022/08/13 08:06:57;;;;;;;3.25;1.05;;;;;;;;;;5020079;28;20029;-49
2022/08/13 08:09:29;;;;;;;3.03;1.13;;;;;;;21.80;100.00;100753.56;5028532;28;20036;-53
2022/08/13 08:14:41;;;;;;;2.67;1.63;;;;;;;22.24;100.00;100753.31;5015790;28;20065;-50
2022/08/13 08:17:11;;;;;;;2.80;1.52;;;;;;;22.40;100.00;100752.31;5021132;28;20030;-51
2022/08/13 08:19:44;;;;;;;3.83;1.52;;;;;;;22.52;100.00;100752.13;5026416;28;20120;-50
2022/08/13 08:22:15;;;;;;;2.78;1.08;;;;;;;22.69;100.00;100757.31;5023631;28;20033;-50
2022/08/13 08:24:48;;;;;;;5.88;2.50;;;;;;;22.83;100.00;100750.31;5027834;28;20048;-52
2022/08/13 08:27:16;;;;;;;7.28;1.10;;;;;;;22.95;100.00;100752.81;5026427;28;20139;-49
2022/08/13 08:29:41;;;;;;;1.40;0.88;;;;;;;23.10;100.00;100749.31;5028073;28;20037;-53
2022/08/13 08:32:10;;;;;;;2.42;1.25;;;;;;;23.27;100.00;100754.50;5026012;28;20083;-52
2022/08/13 08:34:40;;;;;;;4.10;1.27;;;;;;;23.42;100.00;100748.28;5030053;28;20052;-49
2022/08/13 08:37:06;;;;;;;4.80;1.48;;;;;;;23.54;100.00;100746.13;5023192;28;20026;-51
2022/08/13 08:42:38;;;;;;;2.28;1.17;;;;;;;23.85;100.00;100743.41;5027353;28;20107;-52
2022/08/13 08:45:14;;;;;;;4.22;1.10;;;;;;;24.13;100.00;100744.72;5028257;28;20029;-52
2022/08/13 08:47:40;;;;;;;1.52;1.42;;;;;;;24.22;100.00;100743.06;5020377;28;20028;-53
2022/08/13 08:50:09;;;;;;;4.80;1.65;;;;;;;24.34;100.00;100740.03;5026031;28;20029;-51
2022/08/13 08:55:20;;;;;;;1.70;1.17;;;;;;;24.60;100.00;100748.91;5022512;28;20516;-54
2022/08/13 08:58:23;;;;;;;4.35;0.95;;;;;;;24.79;100.00;100743.66;5027351;28;20505;-56
2022/08/13 09:00:56;;;;;;;9.10;1.95;;;;;;;24.96;100.00;100746.84;5020856;28;20037;-52
2022/08/13 09:03:24;;;;;;;12.02;1.30;;;;;;;25.09;100.00;100739.13;5029558;28;20528;-52
2022/08/13 09:05:49;;;;;;;1.02;0.93;;;;;;;25.24;100.00;100736.34;5029268;28;20386;-54
2022/08/13 09:08:17;;;;;;;2.97;1.33;;;;;;;25.41;100.00;100735.97;5028799;28;20034;-52
2022/08/13 09:10:46;;;;;;;5.25;1.33;;;;;;;25.49;100.00;100734.53;5022694;28;20034;-55
2022/08/13 09:13:19;;;;;;;8.95;2.67;;;;;;;25.57;100.00;100736.63;5023065;28;20611;-52
2022/08/13 09:15:46;;;;;;;2.42;1.42;;;;;;;25.74;100.00;100741.63;5026536;28;20112;-56
2022/08/13 09:18:12;;;;;;;2.03;1.13;;;;;;;25.93;100.00;100736.31;5028212;28;20065;-52
2022/08/13 09:20:38;;;;;;;4.43;1.92;;;;;;;26.06;100.00;100735.63;5024032;28;20474;-52
2022/08/13 09:23:06;;;;;;;0.95;0.85;;;;;;;26.28;100.00;100741.38;5022488;28;20095;-53
2022/08/13 09:25:31;;;;;;;8.88;1.10;;;;;;;26.40;100.00;100737.41;5021181;28;20036;-52
2022/08/13 09:27:58;;;;;;;2.92;1.25;;;;;;;26.49;100.00;100732.97;5023668;28;20029;-55
2022/08/13 09:30:23;;;;;;;1.20;0.90;;;;;;;26.59;100.00;100726.59;5029812;28;20037;-53
2022/08/13 09:32:52;;;;;;;1.95;0.80;;;;;;;26.71;100.00;100725.06;5028544;28;20025;-57
2022/08/13 09:35:17;;;;;;;1.45;1.33;;;;;;;26.80;100.00;100717.06;5028888;28;20366;-56
2022/08/13 09:37:44;;;;;;;2.40;1.27;;;;;;;26.97;100.00;100711.09;5022605;28;20116;-52
2022/08/13 09:40:13;;;;;;;3.42;1.45;;;;;;;27.05;100.00;100715.84;5028534;28;20112;-55
2022/08/13 09:42:57;;;;;;;2.47;0.95;;;;;;;27.17;100.00;100713.53;5019854;28;20226;-55
2022/08/13 09:45:25;;;;;;;3.40;1.33;;;;;;;27.22;100.00;100714.56;5026549;28;20565;-55
2022/08/13 09:47:55;;;;;;;2.67;1.60;;;;;;;27.39;100.00;100712.06;5027254;28;20029;-56
2022/08/13 09:50:23;;;;;;;1.27;1.15;;;;;;;27.49;100.00;100695.56;5028109;28;20034;-56
2022/08/13 09:52:51;;;;;;;1.83;1.02;;;;;;;27.76;100.00;100699.47;5028749;28;20535;-56
2022/08/13 09:55:16;;;;;;;4.28;1.30;;;;;;;27.93;97.77;100697.00;5026661;28;20049;-56
2022/08/13 09:57:54;;;;;;;4.18;1.17;;;;;;;27.98;98.51;100705.03;5028726;28;20053;-56
2022/08/13 10:00:22;;;;;;;1.65;1.30;;;;;;;28.08;94.00;100692.34;5022188;28;20132;-55
2022/08/13 10:02:56;;;;;;;4.65;1.23;;;;;;;28.17;91.47;100696.78;5018692;28;20069;-54
2022/08/13 10:05:23;;;;;;;1.40;1.25;;;;;;;28.35;91.25;100684.13;5019247;28;20110;-56
2022/08/13 10:07:48;;;;;;;1.20;1.13;;;;;;;28.54;89.37;100678.56;5024063;28;20113;-53
2022/08/13 10:10:15;;;;;;;0.98;0.90;;;;;;;28.55;87.29;100693.00;5026757;28;20390;-57
2022/08/13 10:12:41;;;;;;;2.42;1.77;;;;;;;28.48;85.64;100682.53;5028999;28;20045;-57
2022/08/13 10:15:09;;;;;;;3.35;0.85;;;;;;;28.56;84.78;100689.19;5027207;28;20365;-55
2022/08/13 10:17:52;;;;;;;5.13;1.17;;;;;;;28.72;83.65;100682.25;5022673;28;20105;-54
2022/08/13 10:20:24;;;;;;;1.52;0.80;;;;;;;28.98;82.76;100670.75;5027031;28;20077;-55
2022/08/13 10:22:51;;;;;;;1.23;1.10;;;;;;;29.22;81.04;100664.97;5026380;28;20037;-53
2022/08/13 10:25:17;;;;;;;4.50;1.75;;;;;;;29.39;78.90;100664.28;5025791;28;20038;-55
2022/08/13 10:27:43;;;;;;;1.30;0.77;;;;;;;29.53;77.50;100657.63;5022560;28;20151;-56
2022/08/13 10:30:09;;;;;;;3.10;0.80;;;;;;;29.72;75.95;100653.88;5024729;28;20087;-54
2022/08/13 10:32:35;;;;;;;3.05;1.00;;;;;;;29.80;71.92;100661.28;5030089;28;20355;-56
2022/08/13 10:35:02;;;;;;;2.88;0.95;;;;;;;29.87;71.19;100663.53;5015015;28;20092;-53
2022/08/13 10:37:31;;;;;;;1.50;0.82;;;;;;;29.96;70.32;100653.47;5026330;28;20033;-53
2022/08/13 10:39:57;;;;;;;2.92;1.08;;;;;;;30.08;71.02;100647.38;5025035;28;20380;-56
2022/08/13 10:42:24;;;;;;;5.30;0.88;;;;;;;30.14;70.31;100648.84;5028939;28;20125;-56
2022/08/13 10:44:52;;;;;;;1.25;1.10;;;;;;;30.30;69.49;100643.75;5024518;28;20128;-54
2022/08/13 10:47:19;;;;;;;0.40;0.40;;;;;;;30.38;67.37;100653.88;5023347;28;20175;-57
2022/08/13 10:49:47;;;;;;;3.40;0.98;;;;;;;30.39;65.46;100656.31;5026569;28;20034;-53
2022/08/13 10:52:13;;;;;;;3.60;1.02;;;;;;;30.47;65.31;100651.97;5026422;28;20501;-55
2022/08/13 10:54:38;;;;;;;3.72;1.10;;;;;;;30.45;64.52;100654.22;5025568;28;20037;-54
2022/08/13 10:57:07;;;;;;;3.50;0.93;;;;;;;30.58;64.06;100656.00;5022495;28;20038;-53
2022/08/13 10:59:34;;;;;;;1.80;0.90;;;;;;;30.69;63.43;100658.41;5026283;28;20022;-53
2022/08/13 11:02:00;;;;;;;0.50;0.50;;;;;;;30.73;62.60;100654.72;5024968;28;20439;-53
2022/08/13 11:04:29;;;;;;;1.33;0.80;;;;;;;30.73;62.26;100642.97;5025080;28;20044;-53
2022/08/13 11:06:55;;;;;;;1.02;0.82;;;;;;;30.99;61.31;100640.22;5025807;28;20537;-56
2022/08/13 11:09:20;;;;;;;2.08;0.70;;;;;;;31.09;61.06;100645.34;5027616;28;20057;-54
2022/08/13 11:11:46;;;;;;;2.67;0.50;;;;;;;31.21;59.69;100640.03;5021898;28;20067;-56
2022/08/13 11:14:18;;;;;;;2.25;0.82;;;;;;;31.21;59.30;100637.28;5020310;28;20025;-58
2022/08/13 11:19:15;;;;;;;3.40;0.65;;;;;;;31.64;57.90;100621.84;5028370;28;20373;-56
2022/08/13 11:21:45;;;;;;;1.38;0.93;;;;;;;31.84;57.87;100629.31;5025658;28;20033;-56
2022/08/13 11:24:13;;;;;;;2.30;0.60;;;;;;;31.86;57.91;100629.78;5025459;28;20025;-51
2022/08/13 11:26:40;;;;;;;2.88;0.77;;;;;;;32.01;57.48;100627.63;5021069;28;20032;-54
2022/08/13 11:29:06;;;;;;;1.25;1.05;;;;;;;32.02;56.73;100623.75;5026670;28;20029;-55
2022/08/13 11:31:32;;;;;;;2.50;1.08;;;;;;;32.10;57.12;100622.91;5022936;28;20168;-55
2022/08/13 11:33:57;;;;;;;2.03;0.80;;;;;;;32.30;56.33;100630.34;5014773;28;20104;-54
2022/08/13 11:36:23;;;;;;;2.10;0.88;;;;;;;32.34;55.71;100625.75;5026993;28;20073;-58
2022/08/13 11:38:48;;;;;;;1.15;0.80;;;;;;;32.33;55.53;100620.63;5017006;28;20044;-49
2022/08/13 11:41:14;;;;;;;3.10;0.40;;;;;;;32.43;54.91;100613.94;5027207;28;20419;-57
2022/08/13 11:43:39;;;;;;;0.45;0.45;;;;;;;32.26;55.50;100626.63;5024076;28;20481;-49
2022/08/13 11:46:05;;;;;;;2.03;0.90;;;;;;;32.26;54.57;100612.91;5023172;28;20036;-62